Time;durP1;ratioP1;P1;durP2;ratioP2;P2;SDS_P1;SDS_P2;PMS_P1;PMS_P2;Temp;Humidity;BMP_temperature;BMP_pressure;BME280_temperature;BME280_humidity;BME280_pressure;Samples;Min_cycle;Max_cycle;Signal;HPM_P1;HPM_P2
2021/04/20 00:02:23;;;;;;;15.20;11.28;;;;;;;8.23;78.73;99483.02;1723011;82;21145;-64
2021/04/20 00:04:52;;;;;;;14.58;12.78;;;;;;;8.23;78.76;99480.34;1698588;82;21202;-68
2021/04/20 00:07:20;;;;;;;13.72;10.48;;;;;;;8.26;78.84;99478.52;1705712;82;21194;-64
2021/04/20 00:09:48;;;;;;;11.85;10.20;;;;;;;8.36;78.81;99475.23;1713769;83;21140;-62
2021/04/20 00:12:16;;;;;;;12.00;10.35;;;;;;;8.48;78.64;99475.20;1716324;82;21238;-61
2021/04/20 00:14:43;;;;;;;12.13;10.13;;;;;;;8.55;78.32;99473.97;1755086;80;21166;-60
2021/04/20 00:17:14;;;;;;;10.45;9.15;;;;;;;8.59;78.21;99471.61;1772304;80;21195;-61
2021/04/20 00:19:42;;;;;;;11.93;10.30;;;;;;;8.57;78.24;99463.02;1757696;80;20998;-60
2021/04/20 00:22:10;;;;;;;12.58;9.88;;;;;;;8.54;78.36;99464.83;1748973;82;21185;-60
2021/04/20 00:24:37;;;;;;;11.25;8.63;;;;;;;8.51;78.42;99460.77;1748973;82;21161;-61
2021/04/20 00:27:06;;;;;;;17.20;12.00;;;;;;;8.48;78.69;99462.61;1749792;80;21114;-65
2021/04/20 00:29:34;;;;;;;13.28;11.75;;;;;;;8.49;78.79;99461.53;1751108;80;21189;-67
2021/04/20 00:32:02;;;;;;;10.43;9.43;;;;;;;8.52;78.81;99453.02;1749986;80;20999;-63
2021/04/20 00:34:29;;;;;;;15.15;12.20;;;;;;;8.54;78.83;99459.46;1767868;80;21113;-60
2021/04/20 00:36:57;;;;;;;15.00;11.40;;;;;;;8.46;78.88;99448.62;1779866;80;21011;-63
2021/04/20 00:39:24;;;;;;;14.33;11.55;;;;;;;8.42;79.05;99445.33;1779882;80;21145;-63
2021/04/20 00:42:07;;;;;;;13.45;10.45;;;;;;;8.40;79.26;99438.86;1750997;80;21368;-63
2021/04/20 00:44:35;;;;;;;13.65;11.00;;;;;;;8.40;79.36;99440.73;1767883;80;20968;-64
2021/04/20 00:47:03;;;;;;;13.35;11.30;;;;;;;8.33;79.71;99438.22;1778481;80;21312;-63
2021/04/20 00:49:32;;;;;;;13.83;11.83;;;;;;;8.28;79.89;99436.76;1754859;80;21110;-63
2021/04/20 00:52:00;;;;;;;19.45;13.20;;;;;;;8.26;80.16;99431.63;1773478;80;21146;-60
2021/04/20 00:54:28;;;;;;;16.73;13.58;;;;;;;8.19;80.54;99428.83;1731034;82;21374;-63
2021/04/20 00:56:56;;;;;;;15.30;12.73;;;;;;;8.13;80.85;99432.46;1768954;80;21713;-64
2021/04/20 00:59:23;;;;;;;13.80;10.95;;;;;;;8.10;81.08;99419.03;1779882;80;21126;-64
2021/04/20 01:01:51;;;;;;;15.45;12.13;;;;;;;8.07;81.36;99418.68;1779496;80;20998;-62
2021/04/20 01:04:19;;;;;;;13.53;12.05;;;;;;;8.02;81.60;99422.08;1779817;80;21602;-63
2021/04/20 01:06:49;;;;;;;13.20;11.33;;;;;;;8.06;81.80;99415.70;1754747;80;21058;-61
2021/04/20 01:09:17;;;;;;;14.90;12.70;;;;;;;8.06;81.85;99411.69;1773011;80;21608;-63
2021/04/20 01:11:46;;;;;;;15.18;13.15;;;;;;;8.04;81.94;99411.13;1752349;80;21089;-61
2021/04/20 01:14:14;;;;;;;19.60;10.45;;;;;;;8.01;82.05;99403.59;1749126;80;21139;-64
2021/04/20 01:16:41;;;;;;;15.05;13.50;;;;;;;7.98;82.28;99406.73;1749852;80;21558;-62
2021/04/20 01:19:18;;;;;;;12.10;10.32;;;;;;;7.95;82.29;99401.34;1766262;80;21289;-65
2021/04/20 01:21:47;;;;;;;18.25;13.10;;;;;;;7.95;82.46;99404.55;1762889;79;21041;-63
2021/04/20 01:24:27;;;;;;;15.25;13.35;;;;;;;7.92;82.48;99397.78;1786603;79;21546;-63
2021/04/20 01:26:56;;;;;;;14.33;11.80;;;;;;;7.89;82.66;99399.62;1779918;80;21606;-61
2021/04/20 01:29:23;;;;;;;15.88;14.13;;;;;;;7.86;82.78;99398.21;1779941;80;21543;-62
2021/04/20 01:31:50;;;;;;;16.87;13.10;;;;;;;7.84;82.83;99392.30;1752062;80;21645;-63
2021/04/20 01:34:19;;;;;;;13.85;12.35;;;;;;;7.85;82.96;99391.78;1748937;82;21133;-62
2021/04/20 01:36:48;;;;;;;16.82;14.87;;;;;;;7.84;83.04;99390.97;1749017;82;21128;-62
2021/04/20 01:39:15;;;;;;;17.80;14.30;;;;;;;7.80;83.09;99386.33;1754274;80;21177;-61
2021/04/20 01:41:43;;;;;;;15.43;12.78;;;;;;;7.80;83.17;99384.98;1771918;79;21141;-62
2021/04/20 01:44:11;;;;;;;17.35;13.20;;;;;;;7.81;83.14;99382.60;1777658;79;21177;-63
2021/04/20 01:46:38;;;;;;;15.83;12.82;;;;;;;7.80;83.18;99379.11;1749757;80;21578;-64
2021/04/20 01:49:06;;;;;;;14.25;12.50;;;;;;;7.81;83.20;99375.39;1770419;81;21023;-63
2021/04/20 01:51:34;;;;;;;16.60;13.98;;;;;;;7.79;83.21;99373.98;1755331;81;21165;-63
2021/04/20 01:54:03;;;;;;;16.20;13.40;;;;;;;7.79;83.32;99371.31;1727699;81;21540;-63
2021/04/20 01:56:31;;;;;;;19.27;13.60;;;;;;;7.75;83.52;99366.97;1750824;81;21254;-70
2021/04/20 01:58:59;;;;;;;15.15;12.90;;;;;;;7.73;83.67;99372.26;1700537;83;21195;-62
2021/04/20 02:01:28;;;;;;;13.60;12.20;;;;;;;7.77;83.59;99364.84;1725267;83;21071;-64
2021/04/20 02:03:55;;;;;;;16.37;13.15;;;;;;;7.80;83.47;99364.39;1726034;81;21158;-62
2021/04/20 02:06:25;;;;;;;16.70;10.20;;;;;;;7.82;83.40;99360.92;1731026;82;21124;-63
2021/04/20 02:08:52;;;;;;;13.38;12.07;;;;;;;7.80;83.31;99359.03;1731115;82;21194;-64
2021/04/20 02:11:23;;;;;;;12.03;10.60;;;;;;;7.77;83.39;99360.83;1730909;82;21159;-64
2021/04/20 02:13:50;;;;;;;15.08;13.50;;;;;;;7.78;83.44;99356.30;1731117;82;21140;-63
2021/04/20 02:16:19;;;;;;;15.55;13.90;;;;;;;7.79;83.37;99354.73;1749916;81;21588;-62
2021/04/20 02:18:51;;;;;;;15.63;12.90;;;;;;;7.78;83.30;99355.77;1760793;81;21154;-63
2021/04/20 02:21:18;;;;;;;20.70;13.48;;;;;;;7.79;83.30;99360.08;1756029;81;21366;-62
2021/04/20 02:23:46;;;;;;;20.48;13.18;;;;;;;7.74;83.29;99362.66;1749723;82;21209;-61
2021/04/20 02:26:19;;;;;;;25.55;12.45;;;;;;;7.72;83.45;99362.63;1735520;82;21022;-63
2021/04/20 02:28:48;;;;;;;14.75;13.25;;;;;;;7.73;83.70;99357.02;1733118;82;21140;-64
2021/04/20 02:31:15;;;;;;;15.48;13.68;;;;;;;7.74;83.67;99353.81;1747756;82;21168;-61
2021/04/20 02:33:43;;;;;;;15.93;14.23;;;;;;;7.70;83.79;99349.47;1748461;81;21179;-64
2021/04/20 02:36:11;;;;;;;12.98;10.43;;;;;;;7.71;83.83;99348.95;1722223;82;24549;-63
2021/04/20 02:38:39;;;;;;;16.17;13.35;;;;;;;7.74;83.81;99340.43;1709039;84;21762;-62
2021/04/20 02:41:08;;;;;;;17.82;13.60;;;;;;;7.72;83.68;99338.54;1681321;84;22178;-62
2021/04/20 02:43:36;;;;;;;15.88;13.53;;;;;;;7.72;83.68;99347.35;1709424;84;21128;-61
2021/04/20 02:46:04;;;;;;;18.37;14.13;;;;;;;7.66;83.85;99333.61;1659005;84;22177;-63
2021/04/20 02:48:31;;;;;;;16.73;14.98;;;;;;;7.61;83.99;99336.19;1709568;84;21638;-65
2021/04/20 02:50:59;;;;;;;16.27;13.80;;;;;;;7.58;84.11;99329.17;1658719;84;21133;-63
2021/04/20 02:53:27;;;;;;;13.83;12.18;;;;;;;7.60;84.23;99330.55;1696752;84;21172;-63
2021/04/20 02:55:56;;;;;;;16.25;14.18;;;;;;;7.63;84.13;99327.90;1688566;82;21208;-63
2021/04/20 02:58:27;;;;;;;13.70;12.05;;;;;;;7.60;84.10;99328.39;1713814;82;22217;-62
2021/04/20 03:01:01;;;;;;;13.85;12.35;;;;;;;7.61;84.13;99331.36;1685459;83;21200;-62
2021/04/20 03:03:29;;;;;;;17.50;12.82;;;;;;;7.59;84.21;99336.13;1685709;84;21162;-62
2021/04/20 03:06:01;;;;;;;14.03;12.55;;;;;;;7.58;84.24;99339.88;1679731;85;21093;-62
2021/04/20 03:08:30;;;;;;;16.85;14.55;;;;;;;7.54;84.21;99330.16;1695637;84;21176;-64
2021/04/20 03:11:00;;;;;;;14.58;13.05;;;;;;;7.48;84.34;99332.99;1671679;83;21249;-62
2021/04/20 03:13:28;;;;;;;19.27;16.25;;;;;;;7.43;84.47;99329.14;1691560;84;21192;-61
2021/04/20 03:15:55;;;;;;;16.60;12.80;;;;;;;7.39;84.58;99332.01;1669333;83;21143;-64
2021/04/20 03:18:24;;;;;;;16.52;14.00;;;;;;;7.32;84.96;99327.34;1678309;83;21999;-63
2021/04/20 03:20:52;;;;;;;18.60;13.80;;;;;;;7.25;85.21;99333.34;1700235;82;21204;-62
2021/04/20 03:23:20;;;;;;;16.17;13.10;;;;;;;7.19;85.53;99324.94;1707066;82;21465;-63
2021/04/20 03:25:48;;;;;;;19.73;15.55;;;;;;;7.22;85.79;99328.47;1713023;82;21177;-64
2021/04/20 03:28:16;;;;;;;20.72;16.07;;;;;;;7.26;85.72;99332.81;1702676;84;21180;-62
2021/04/20 03:30:44;;;;;;;20.62;16.32;;;;;;;7.18;85.96;99325.98;1702245;84;21152;-62
2021/04/20 03:33:29;;;;;;;14.70;13.05;;;;;;;7.17;86.01;99328.88;1701974;84;21210;-62
2021/04/20 03:36:12;;;;;;;15.70;14.00;;;;;;;7.18;86.00;99327.32;1703226;84;21220;-63
2021/04/20 03:38:59;;;;;;;14.35;12.55;;;;;;;7.22;86.03;99332.48;1695732;84;21222;-62
2021/04/20 03:41:32;;;;;;;14.45;12.88;;;;;;;7.26;86.06;99328.80;1753301;81;21121;-63
2021/04/20 03:44:00;;;;;;;16.32;13.88;;;;;;;7.21;86.06;99324.69;1723913;82;21163;-62
2021/04/20 03:46:37;;;;;;;15.05;13.48;;;;;;;7.17;86.21;99328.88;1719971;82;21189;-62
2021/04/20 03:49:22;;;;;;;12.88;11.45;;;;;;;7.15;86.18;99333.13;1720491;82;21159;-64
2021/04/20 03:51:52;;;;;;;16.45;14.25;;;;;;;7.14;86.44;99334.20;1694265;84;21815;-64
2021/04/20 03:54:21;;;;;;;15.03;12.98;;;;;;;7.03;86.74;99327.52;1666472;86;21131;-63
2021/04/20 03:56:50;;;;;;;14.18;12.58;;;;;;;6.93;87.36;99329.45;1641440;84;21195;-61
2021/04/20 03:59:19;;;;;;;16.67;12.47;;;;;;;6.94;87.42;99327.89;1686327;84;21181;-62
2021/04/20 04:01:49;;;;;;;15.78;13.38;;;;;;;7.00;87.50;99336.29;1729173;81;21260;-63
2021/04/20 04:04:22;;;;;;;15.85;13.32;;;;;;;7.03;87.58;99329.67;1667749;85;21635;-63
2021/04/20 04:06:50;;;;;;;15.03;13.15;;;;;;;6.97;87.66;99330.09;1742279;82;21135;-61
2021/04/20 04:09:19;;;;;;;16.62;14.43;;;;;;;6.97;87.86;99319.39;1748676;82;21250;-61
2021/04/20 04:12:04;;;;;;;15.48;11.22;;;;;;;6.93;88.04;99322.25;1738935;81;21157;-64
2021/04/20 04:14:34;;;;;;;12.35;11.15;;;;;;;6.92;88.29;99319.80;1752886;81;22531;-64
2021/04/20 04:17:09;;;;;;;13.10;10.82;;;;;;;6.94;88.50;99313.72;1730173;81;21180;-61
2021/04/20 04:19:44;;;;;;;12.93;11.40;;;;;;;6.93;88.63;99315.57;1723978;82;21129;-62
2021/04/20 04:22:21;;;;;;;17.82;12.73;;;;;;;6.93;88.70;99314.75;1737408;82;21124;-61
2021/04/20 04:24:53;;;;;;;18.25;12.68;;;;;;;6.93;88.75;99318.25;1727346;83;21204;-62
2021/04/20 04:27:25;;;;;;;15.30;12.78;;;;;;;6.93;88.90;99312.90;1759210;81;21199;-63
2021/04/20 04:29:57;;;;;;;11.70;10.50;;;;;;;6.94;88.94;99313.19;1687847;83;21168;-63
2021/04/20 04:32:25;;;;;;;18.92;15.23;;;;;;;6.97;89.07;99314.05;1702590;84;21181;-62
2021/04/20 04:34:52;;;;;;;14.90;13.28;;;;;;;6.93;89.23;99311.56;1670881;83;21164;-62
2021/04/20 04:37:20;;;;;;;18.67;15.85;;;;;;;6.96;89.38;99313.75;1716167;82;21228;-63
2021/04/20 04:39:48;;;;;;;18.17;13.45;;;;;;;6.98;89.36;99313.53;1711826;83;21214;-62
2021/04/20 04:42:16;;;;;;;16.75;13.35;;;;;;;6.98;89.44;99310.33;1711690;83;21195;-61
2021/04/20 04:44:47;;;;;;;16.48;11.57;;;;;;;6.97;89.63;99313.23;1703836;82;21113;-64
2021/04/20 04:47:15;;;;;;;15.72;12.88;;;;;;;6.97;89.78;99311.89;1705378;83;21151;-60
2021/04/20 04:49:44;;;;;;;15.03;12.93;;;;;;;7.00;89.86;99306.09;1737328;81;21606;-61
2021/04/20 04:52:14;;;;;;;16.27;12.78;;;;;;;7.00;90.15;99309.55;1733409;81;21197;-63
2021/04/20 04:54:43;;;;;;;15.20;13.58;;;;;;;7.04;90.16;99303.23;1756262;81;21618;-66
2021/04/20 04:57:13;;;;;;;18.82;13.80;;;;;;;7.10;90.17;99303.60;1763690;81;21155;-62
2021/04/20 04:59:41;;;;;;;14.93;13.40;;;;;;;7.14;90.27;99303.45;1763670;81;21207;-62
2021/04/20 05:02:11;;;;;;;15.28;13.28;;;;;;;7.19;90.19;99298.72;1733285;82;21631;-70
2021/04/20 05:04:40;;;;;;;16.80;13.68;;;;;;;7.25;90.07;99303.09;1733482;82;22125;-62
2021/04/20 05:07:08;;;;;;;17.55;12.45;;;;;;;7.31;89.91;99306.17;1733347;82;21630;-69
2021/04/20 05:09:36;;;;;;;16.70;14.68;;;;;;;7.38;89.76;99303.66;1733439;82;21126;-64
2021/04/20 05:12:07;;;;;;;16.40;13.80;;;;;;;7.41;89.48;99300.49;1737236;81;22007;-62
2021/04/20 05:14:34;;;;;;;14.83;13.28;;;;;;;7.49;89.52;99297.95;1758623;80;21105;-64
2021/04/20 05:17:03;;;;;;;16.55;12.95;;;;;;;7.58;89.29;99302.41;1727419;83;22045;-63
2021/04/20 05:19:32;;;;;;;13.28;11.78;;;;;;;7.63;89.00;99304.62;1713711;81;21243;-61
2021/04/20 05:22:00;;;;;;;12.50;11.20;;;;;;;7.67;88.59;99301.79;1727182;83;21083;-59
2021/04/20 05:24:31;;;;;;;10.80;9.38;;;;;;;7.73;88.37;99302.66;1747713;81;21170;-62
2021/04/20 05:26:58;;;;;;;14.73;12.40;;;;;;;7.74;88.09;99301.09;1723649;82;21184;-72
2021/04/20 05:29:27;;;;;;;12.35;11.15;;;;;;;7.79;88.09;99298.51;1726179;82;21220;-63
2021/04/20 05:31:55;;;;;;;10.80;9.70;;;;;;;7.86;87.77;99302.38;1750662;81;21182;-63
2021/04/20 05:34:23;;;;;;;13.25;11.55;;;;;;;7.92;87.69;99300.58;1750785;82;21134;-63
2021/04/20 05:36:51;;;;;;;11.50;10.23;;;;;;;7.94;87.19;99295.28;1731235;82;21217;-62
2021/04/20 05:39:19;;;;;;;21.05;11.53;;;;;;;7.97;87.05;99299.33;1746766;82;21177;-63
2021/04/20 05:41:47;;;;;;;16.25;10.70;;;;;;;8.00;87.02;99292.98;1715042;83;21364;-65
2021/04/20 05:44:14;;;;;;;16.65;10.82;;;;;;;8.05;86.96;99293.06;1746210;82;21121;-65
2021/04/20 05:46:46;;;;;;;10.80;9.55;;;;;;;8.13;86.97;99288.64;1748718;81;21109;-64
2021/04/20 05:49:16;;;;;;;10.58;9.53;;;;;;;8.15;86.47;99294.55;1748880;81;21559;-63
2021/04/20 05:51:44;;;;;;;13.80;11.75;;;;;;;8.08;86.25;99292.57;1749970;81;21138;-62
2021/04/20 05:54:12;;;;;;;23.55;16.02;;;;;;;8.03;86.57;99295.16;1731370;81;21208;-62
2021/04/20 05:56:41;;;;;;;15.65;13.78;;;;;;;8.10;86.69;99297.69;1708117;83;21090;-64
2021/04/20 05:59:09;;;;;;;14.13;10.58;;;;;;;8.14;86.62;99305.52;1732235;82;21153;-63
2021/04/20 06:01:41;;;;;;;15.08;12.98;;;;;;;8.16;86.54;99301.53;1707451;82;21241;-64
2021/04/20 06:04:09;;;;;;;17.57;12.20;;;;;;;8.22;86.49;99307.27;1724455;82;21141;-63
2021/04/20 06:06:40;;;;;;;12.25;11.15;;;;;;;8.24;86.35;99301.67;1703008;83;21227;-64
2021/04/20 06:09:09;;;;;;;12.25;9.43;;;;;;;8.23;86.20;99298.17;1703005;84;21654;-63
2021/04/20 06:11:39;;;;;;;12.35;10.43;;;;;;;8.24;85.87;99297.13;1703089;84;21185;-63
2021/04/20 06:14:07;;;;;;;11.50;10.40;;;;;;;8.28;85.94;99300.12;1703084;84;21236;-61
2021/04/20 06:16:36;;;;;;;11.30;9.53;;;;;;;8.27;85.47;99295.29;1701750;82;21173;-63
2021/04/20 06:19:05;;;;;;;10.23;9.03;;;;;;;8.21;85.56;99301.61;1728027;82;21197;-63
2021/04/20 06:21:34;;;;;;;9.38;8.38;;;;;;;8.22;85.70;99297.07;1727367;83;21178;-64
2021/04/20 06:24:05;;;;;;;8.83;7.80;;;;;;;8.15;85.77;99287.06;1732282;81;21195;-65
2021/04/20 06:26:36;;;;;;;9.05;8.15;;;;;;;8.17;86.00;99286.27;1703013;84;21128;-64
2021/04/20 06:29:05;;;;;;;8.93;8.00;;;;;;;8.21;85.70;99284.20;1714609;83;21141;-66
2021/04/20 06:31:35;;;;;;;13.90;11.85;;;;;;;8.24;85.76;99277.03;1744364;82;22760;-64
2021/04/20 06:34:03;;;;;;;9.63;8.73;;;;;;;8.25;85.73;99277.30;1737898;81;21177;-65
2021/04/20 06:36:31;;;;;;;8.03;7.22;;;;;;;8.29;85.74;99278.48;1721151;83;21638;-63
2021/04/20 06:38:59;;;;;;;10.13;7.55;;;;;;;8.34;85.51;99271.58;1720982;83;21141;-65
2021/04/20 06:41:27;;;;;;;11.53;8.38;;;;;;;8.42;85.22;99273.30;1721064;83;21153;-64
2021/04/20 06:44:33;;;;;;;7.92;7.12;;;;;;;8.48;84.87;99273.67;1720993;83;21157;-62
2021/04/20 06:47:15;;;;;;;8.25;7.25;;;;;;;8.57;84.34;99257.97;1692338;82;21184;-63
2021/04/20 06:49:52;;;;;;;7.92;7.12;;;;;;;8.69;83.48;99260.81;1748852;82;21156;-63
2021/04/20 06:52:33;;;;;;;13.03;7.42;;;;;;;8.73;82.57;99259.25;1727484;83;21169;-62
2021/04/20 06:55:18;;;;;;;7.58;6.67;;;;;;;8.79;82.56;99263.34;1715835;81;21193;-64
2021/04/20 06:57:57;;;;;;;7.97;7.17;;;;;;;8.91;82.09;99258.69;1712250;82;23620;-63
2021/04/20 07:00:27;;;;;;;7.78;6.70;;;;;;;9.03;81.76;99255.33;1750566;82;21259;-61
2021/04/20 07:03:32;;;;;;;7.87;6.85;;;;;;;9.12;81.08;99255.17;1750260;81;21217;-64
2021/04/20 07:06:31;;;;;;;7.62;6.62;;;;;;;9.18;80.49;99250.97;1695633;82;21188;-65
2021/04/20 07:09:22;;;;;;;9.33;8.20;;;;;;;9.21;79.21;99252.88;1724540;82;21187;-63
2021/04/20 07:11:51;;;;;;;7.17;6.58;;;;;;;9.18;79.18;99248.80;1746375;82;21205;-65
2021/04/20 07:14:36;;;;;;;10.25;8.65;;;;;;;9.15;78.95;99248.80;1748795;81;21582;-65
2021/04/20 07:17:13;;;;;;;;;;;;;;;9.00;79.30;99251.82;1730023;82;21780;-63
2021/04/20 07:20:23;;;;;;;11.20;10.08;;;;;;;9.00;79.58;99251.30;1747352;81;20406;-62
2021/04/20 07:23:03;;;;;;;11.88;7.78;;;;;;;9.02;79.87;99248.34;1710194;83;21645;-63
2021/04/20 07:25:58;;;;;;;11.70;8.85;;;;;;;9.06;79.83;99246.80;1693846;84;21665;-62
2021/04/20 07:28:53;;;;;;;10.10;8.15;;;;;;;9.05;80.09;99251.36;1712358;82;21066;-64
2021/04/20 07:31:29;;;;;;;9.55;8.08;;;;;;;9.06;80.53;99243.59;1725773;81;21011;-62
2021/04/20 07:34:12;;;;;;;7.97;7.25;;;;;;;9.13;80.70;99242.86;1748850;82;21587;-64
2021/04/20 07:37:09;;;;;;;;;;;;;;;9.22;80.86;99247.77;1751491;81;21606;-62
2021/04/20 07:39:55;;;;;;;12.10;9.73;;;;;;;9.26;80.68;99240.30;1748520;81;21210;-65
2021/04/20 07:42:48;;;;;;;21.75;10.48;;;;;;;9.27;80.97;99241.11;1727099;82;21196;-65
2021/04/20 07:45:52;;;;;;;10.20;9.10;;;;;;;9.30;81.36;99236.60;1745780;81;21241;-63
2021/04/20 07:48:43;;;;;;;13.28;11.00;;;;;;;9.36;81.19;99235.57;1710544;83;21169;-66
2021/04/20 07:51:33;;;;;;;9.48;8.58;;;;;;;9.39;80.87;99233.75;1733950;82;21179;-64
2021/04/20 07:54:27;;;;;;;8.20;7.47;;;;;;;9.44;80.17;99231.92;1723317;83;22248;-67
2021/04/20 07:56:59;;;;;;;;;;;;;;;9.48;79.75;99234.38;1684500;84;21189;-64
2021/04/20 07:59:54;;;;;;;8.35;7.62;;;;;;;9.54;79.64;99231.21;1705827;84;20175;-69
2021/04/20 08:03:07;;;;;;;7.53;6.75;;;;;;;9.57;79.57;99231.51;1686206;81;21212;-68
2021/04/20 08:05:47;;;;;;;9.50;8.40;;;;;;;9.62;79.68;99236.11;1741196;81;21158;-66
2021/04/20 08:08:26;;;;;;;8.45;7.75;;;;;;;9.57;79.14;99226.14;1705549;82;21327;-64
2021/04/20 08:11:20;;;;;;;8.05;7.35;;;;;;;9.63;78.97;99228.34;1745469;81;21593;-68
2021/04/20 08:14:18;;;;;;;11.38;9.73;;;;;;;9.66;78.90;99227.01;1725056;82;21115;-65
2021/04/20 08:17:10;;;;;;;9.38;8.45;;;;;;;9.66;78.99;99230.51;1674137;83;21201;-61
2021/04/20 08:19:51;;;;;;;8.43;7.50;;;;;;;9.69;79.01;99231.33;1684012;83;21193;-65
2021/04/20 08:22:19;;;;;;;9.30;7.78;;;;;;;9.73;78.53;99228.97;1677846;83;21284;-63
2021/04/20 08:24:56;;;;;;;10.03;8.88;;;;;;;9.81;78.36;99227.14;1723849;82;21074;-63
2021/04/20 08:27:51;;;;;;;9.38;8.43;;;;;;;9.79;77.73;99215.30;1733897;82;21197;-62
2021/04/20 08:30:36;;;;;;;9.10;7.80;;;;;;;9.83;77.50;99218.31;1732872;81;21664;-63
2021/04/20 08:33:09;;;;;;;9.70;8.78;;;;;;;9.89;77.29;99219.42;1754125;81;21120;-62
2021/04/20 08:35:37;;;;;;;9.33;8.45;;;;;;;9.87;77.68;99210.02;1765904;81;22105;-62
2021/04/20 08:38:41;;;;;;;9.10;7.80;;;;;;;9.91;77.56;99217.30;1765735;81;21618;-63
2021/04/20 08:41:34;;;;;;;10.53;8.68;;;;;;;9.96;77.52;99218.69;1735422;81;22258;-63
2021/04/20 08:44:29;;;;;;;11.12;7.50;;;;;;;9.99;77.11;99222.72;1735007;82;21632;-63
2021/04/20 08:47:13;;;;;;;9.03;7.65;;;;;;;10.03;76.92;99224.63;1648879;85;21217;-63
2021/04/20 08:49:57;;;;;;;12.47;9.75;;;;;;;10.08;76.60;99217.95;1650963;86;21522;-63
2021/04/20 08:52:55;;;;;;;12.98;8.75;;;;;;;10.15;76.12;99215.05;1638569;86;21316;-63
2021/04/20 08:55:53;;;;;;;7.83;6.85;;;;;;;10.17;75.23;99210.80;1663561;85;21583;-66
2021/04/20 08:59:18;;;;;;;7.55;6.72;;;;;;;10.25;75.05;99213.00;1681023;85;21156;-63
2021/04/20 09:02:23;;;;;;;10.55;8.75;;;;;;;10.34;74.50;99203.38;1658200;85;21220;-66
2021/04/20 09:05:09;;;;;;;10.18;6.80;;;;;;;10.38;74.64;99209.84;1688150;84;21218;-67
2021/04/20 09:08:07;;;;;;;10.72;7.37;;;;;;;10.49;74.07;99208.31;1693094;84;21222;-66
2021/04/20 09:11:10;;;;;;;7.10;6.40;;;;;;;10.51;73.44;99198.62;1665617;85;21177;-68
2021/04/20 09:13:58;;;;;;;7.70;6.22;;;;;;;10.59;72.38;99194.64;1846899;76;22675;-66
2021/04/20 09:16:56;;;;;;;8.40;6.87;;;;;;;10.55;72.22;99198.93;1806857;79;21694;-65
2021/04/20 09:19:35;;;;;;;9.50;8.60;;;;;;;10.57;72.60;99196.77;1778593;80;21578;-66
2021/04/20 09:22:21;;;;;;;8.03;7.22;;;;;;;10.62;72.34;99196.27;1784895;80;21141;-63
2021/04/20 09:24:58;;;;;;;19.65;7.83;;;;;;;10.69;72.34;99191.47;1785670;79;21002;-64
2021/04/20 09:27:55;;;;;;;16.57;8.28;;;;;;;10.70;71.57;99189.03;1784940;80;21595;-64
2021/04/20 09:30:26;;;;;;;6.67;4.12;;;;;;;10.72;71.13;99190.12;1792659;79;21089;-63
2021/04/20 09:33:14;;;;;;;7.58;6.92;;;;;;;10.77;70.81;99176.69;1780097;79;21527;-63
2021/04/20 09:35:42;;;;;;;7.97;7.25;;;;;;;10.81;70.73;99169.17;1784994;80;20991;-65
2021/04/20 09:38:10;;;;;;;8.88;8.10;;;;;;;10.91;70.80;99177.81;1794349;79;21059;-64
2021/04/20 09:40:41;;;;;;;7.50;6.70;;;;;;;10.98;70.61;99170.84;1817178;79;20975;-65
2021/04/20 09:43:26;;;;;;;8.05;7.28;;;;;;;11.03;70.86;99170.87;1786165;79;21535;-64
2021/04/20 09:45:58;;;;;;;7.05;6.37;;;;;;;11.07;69.43;99159.30;1817210;78;22787;-62
2021/04/20 09:48:55;;;;;;;8.88;7.37;;;;;;;11.15;69.12;99158.77;1799243;78;21172;-63
2021/04/20 09:51:27;;;;;;;11.22;7.10;;;;;;;11.20;68.95;99146.67;1734516;82;21216;-64
2021/04/20 09:54:28;;;;;;;8.33;7.45;;;;;;;11.29;68.75;99141.56;1701860;82;21443;-64
2021/04/20 09:57:07;;;;;;;7.53;6.78;;;;;;;11.45;68.14;99139.70;1868633;76;22606;-66
2021/04/20 09:59:48;;;;;;;10.23;9.30;;;;;;;11.57;67.30;99134.84;1855942;77;20978;-63
2021/04/20 10:02:50;;;;;;;9.55;7.85;;;;;;;11.73;67.24;99137.84;1850266;77;21124;-66
2021/04/20 10:05:50;;;;;;;8.43;7.63;;;;;;;11.84;65.98;99135.95;1795438;77;21222;-63
2021/04/20 10:08:41;;;;;;;9.58;7.37;;;;;;;11.93;65.40;99136.47;1765119;78;21433;-69
2021/04/20 10:11:23;;;;;;;9.45;6.72;;;;;;;11.97;65.65;99134.03;1770176;78;20998;-65
2021/04/20 10:14:24;;;;;;;14.33;5.17;;;;;;;11.95;64.62;99131.59;1792817;79;21003;-65
2021/04/20 10:17:17;;;;;;;7.45;6.78;;;;;;;11.94;64.46;99130.55;1821024;78;22644;-64
2021/04/20 10:20:15;;;;;;;10.28;7.78;;;;;;;11.77;65.13;99119.51;1758051;80;20975;-63
2021/04/20 10:22:59;;;;;;;7.87;7.17;;;;;;;11.65;65.78;99124.36;1795029;79;21069;-65
2021/04/20 10:25:50;;;;;;;6.30;5.70;;;;;;;11.57;64.93;99125.41;1789084;78;21176;-64
2021/04/20 10:28:39;;;;;;;8.23;7.37;;;;;;;11.53;63.93;99119.77;1782551;78;21150;-68
2021/04/20 10:31:18;;;;;;;6.65;6.03;;;;;;;11.52;64.34;99125.41;1800656;78;22138;-68
2021/04/20 10:33:49;;;;;;;4.50;4.10;;;;;;;11.53;64.56;99120.30;1787964;78;21953;-70
2021/04/20 10:36:23;;;;;;;7.40;6.20;;;;;;;11.58;64.33;99120.30;1778451;79;21147;-67
2021/04/20 10:38:52;;;;;;;;;;;;;;;11.65;63.83;99121.66;1740671;80;21166;-66
2021/04/20 10:41:23;;;;;;;6.40;5.87;;;;;;;11.73;63.27;99117.09;1758725;80;20269;-67
2021/04/20 10:43:52;;;;;;;6.42;5.83;;;;;;;11.78;62.47;99113.05;1785520;80;21200;-65
2021/04/20 10:48:58;;;;;;;7.28;6.05;;;;;;;11.99;61.75;99107.06;1846328;76;22713;-68
2021/04/20 10:51:37;;;;;;;6.35;5.75;;;;;;;11.95;61.19;99111.92;1815207;79;20996;-65
2021/04/20 10:54:07;;;;;;;7.12;6.20;;;;;;;12.00;61.77;99115.42;1792008;79;22726;-65
2021/04/20 10:56:35;;;;;;;7.08;6.45;;;;;;;11.99;62.87;99113.02;1753977;81;20991;-66
2021/04/20 10:59:08;;;;;;;5.67;5.17;;;;;;;11.99;63.14;99110.33;1776486;80;20984;-66
2021/04/20 11:01:40;;;;;;;8.38;6.83;;;;;;;11.98;62.63;99113.56;1784856;80;21018;-64
2021/04/20 11:04:08;;;;;;;21.97;7.92;;;;;;;12.02;62.31;99110.58;1731716;80;20983;-64
2021/04/20 11:06:55;;;;;;;9.08;6.67;;;;;;;12.08;62.19;99101.41;1784876;80;21188;-65
2021/04/20 11:09:32;;;;;;;6.80;6.10;;;;;;;12.15;61.31;99107.30;1784940;80;21038;-59
2021/04/20 11:12:11;;;;;;;7.37;6.58;;;;;;;12.13;62.41;99110.80;1754307;80;21615;-67
2021/04/20 11:14:44;;;;;;;6.75;6.12;;;;;;;12.10;62.62;99108.66;1784822;80;21603;-64
2021/04/20 11:17:44;;;;;;;8.20;6.75;;;;;;;11.97;63.11;99097.11;1784887;80;21149;-63
2021/04/20 11:20:20;;;;;;;6.65;5.50;;;;;;;11.89;63.04;99103.61;1754175;80;22075;-66
2021/04/20 11:26:12;;;;;;;7.85;6.60;;;;;;;11.93;62.63;99100.09;1857348;76;22729;-64
2021/04/20 11:28:56;;;;;;;6.53;5.90;;;;;;;11.90;62.70;99084.98;1829843;78;20967;-66
2021/04/20 11:31:38;;;;;;;6.50;5.90;;;;;;;11.93;62.31;99092.01;1794141;78;21160;-65
2021/04/20 11:34:19;;;;;;;8.28;7.58;;;;;;;11.92;62.53;99082.30;1827875;77;21575;-64
2021/04/20 11:37:05;;;;;;;7.47;5.85;;;;;;;11.90;62.96;99083.64;1853872;77;21042;-63
2021/04/20 11:40:03;;;;;;;6.85;6.25;;;;;;;11.94;62.88;99088.20;1801038;77;21077;-62
2021/04/20 11:42:47;;;;;;;8.30;6.75;;;;;;;11.97;62.05;99079.59;1832544;77;22305;-67
2021/04/20 11:45:21;;;;;;;6.75;6.20;;;;;;;11.97;62.18;99074.20;1859742;77;22195;-68
2021/04/20 11:48:13;;;;;;;6.97;6.33;;;;;;;11.99;61.24;99072.59;1860535;77;21185;-61
2021/04/20 11:50:51;;;;;;;6.85;6.15;;;;;;;11.92;61.15;99070.71;1860431;77;21034;-64
2021/04/20 11:53:19;;;;;;;7.90;6.92;;;;;;;11.99;60.46;99067.20;1860661;77;20923;-64
2021/04/20 11:55:48;;;;;;;6.15;5.55;;;;;;;12.13;60.35;99064.19;1862238;77;20930;-60
2021/04/20 11:58:41;;;;;;;5.83;5.25;;;;;;;12.23;60.00;99063.59;1833403;77;21187;-61
2021/04/20 12:01:23;;;;;;;5.12;4.67;;;;;;;12.32;59.14;99061.69;1799308;78;21018;-66
2021/04/20 12:03:54;;;;;;;6.08;5.35;;;;;;;12.40;59.04;99048.97;1827065;77;20990;-66
2021/04/20 12:06:23;;;;;;;7.17;6.57;;;;;;;12.41;59.02;99055.98;1835209;77;20924;-66
2021/04/20 12:08:54;;;;;;;7.20;6.05;;;;;;;12.39;59.83;99049.51;1839287;77;21430;-66
2021/04/20 12:11:27;;;;;;;6.80;6.20;;;;;;;12.40;59.92;99053.02;1827051;78;22248;-62
2021/04/20 12:13:57;;;;;;;12.03;6.87;;;;;;;12.36;59.10;99045.22;1826832;78;20943;-62
2021/04/20 12:16:27;;;;;;;8.10;7.25;;;;;;;12.30;59.31;99044.97;1832470;77;21511;-66
2021/04/20 12:18:56;;;;;;;8.53;6.35;;;;;;;12.29;59.38;99038.77;1792390;78;20923;-63